sensor_id;sensor_type;location;lat;lon;timestamp;P1;durP1;ratioP1;P2;durP2;ratioP2
33926;SDS011;20485;50.992;5.550;2023-03-03T00:01:21;65.40;;;25.67;;
33926;SDS011;20485;50.992;5.550;2023-03-03T00:03:51;62.10;;;25.83;;
33926;SDS011;20485;50.992;5.550;2023-03-03T00:06:17;64.40;;;27.05;;
33926;SDS011;20485;50.992;5.550;2023-03-03T00:08:44;70.72;;;27.73;;
33926;SDS011;20485;50.992;5.550;2023-03-03T00:11:10;71.13;;;26.92;;
33926;SDS011;20485;50.992;5.550;2023-03-03T00:13:40;62.03;;;27.25;;
33926;SDS011;20485;50.992;5.550;2023-03-03T00:18:48;60.95;;;27.20;;
33926;SDS011;20485;50.992;5.550;2023-03-03T00:21:21;67.85;;;27.38;;
33926;SDS011;20485;50.992;5.550;2023-03-03T00:23:47;63.30;;;27.33;;
33926;SDS011;20485;50.992;5.550;2023-03-03T00:26:15;67.50;;;26.58;;
33926;SDS011;20485;50.992;5.550;2023-03-03T00:28:58;67.97;;;27.60;;
33926;SDS011;20485;50.992;5.550;2023-03-03T00:34:00;70.38;;;27.27;;
33926;SDS011;20485;50.992;5.550;2023-03-03T00:36:41;66.43;;;27.45;;
33926;SDS011;20485;50.992;5.550;2023-03-03T00:42:00;60.50;;;25.75;;
33926;SDS011;20485;50.992;5.550;2023-03-03T00:44:38;66.65;;;26.90;;
33926;SDS011;20485;50.992;5.550;2023-03-03T00:49:53;67.10;;;27.48;;
33926;SDS011;20485;50.992;5.550;2023-03-03T00:52:23;61.50;;;26.02;;
33926;SDS011;20485;50.992;5.550;2023-03-03T00:54:56;63.60;;;25.83;;
33926;SDS011;20485;50.992;5.550;2023-03-03T00:57:22;66.00;;;27.77;;
33926;SDS011;20485;50.992;5.550;2023-03-03T00:59:48;67.35;;;27.48;;
33926;SDS011;20485;50.992;5.550;2023-03-03T01:02:13;73.55;;;28.42;;
33926;SDS011;20485;50.992;5.550;2023-03-03T01:04:39;75.63;;;29.73;;
33926;SDS011;20485;50.992;5.550;2023-03-03T01:07:06;80.82;;;31.23;;
33926;SDS011;20485;50.992;5.550;2023-03-03T01:09:32;75.97;;;30.27;;
33926;SDS011;20485;50.992;5.550;2023-03-03T01:11:58;79.50;;;29.75;;
33926;SDS011;20485;50.992;5.550;2023-03-03T01:14:24;82.90;;;30.95;;
33926;SDS011;20485;50.992;5.550;2023-03-03T01:16:49;85.38;;;34.05;;
33926;SDS011;20485;50.992;5.550;2023-03-03T01:19:15;92.88;;;34.28;;
33926;SDS011;20485;50.992;5.550;2023-03-03T01:21:41;96.38;;;34.33;;
33926;SDS011;20485;50.992;5.550;2023-03-03T01:24:06;88.20;;;34.13;;
33926;SDS011;20485;50.992;5.550;2023-03-03T01:26:32;93.97;;;33.90;;
33926;SDS011;20485;50.992;5.550;2023-03-03T01:28:58;96.65;;;33.88;;
33926;SDS011;20485;50.992;5.550;2023-03-03T01:31:23;93.68;;;35.53;;
33926;SDS011;20485;50.992;5.550;2023-03-03T01:33:49;108.38;;;34.83;;
33926;SDS011;20485;50.992;5.550;2023-03-03T01:36:15;104.00;;;35.78;;
33926;SDS011;20485;50.992;5.550;2023-03-03T01:38:40;104.93;;;36.72;;
33926;SDS011;20485;50.992;5.550;2023-03-03T01:41:07;98.70;;;34.63;;
33926;SDS011;20485;50.992;5.550;2023-03-03T01:43:32;99.07;;;35.38;;
33926;SDS011;20485;50.992;5.550;2023-03-03T01:48:24;89.40;;;31.73;;
33926;SDS011;20485;50.992;5.550;2023-03-03T01:53:42;95.68;;;33.10;;
33926;SDS011;20485;50.992;5.550;2023-03-03T01:56:12;105.10;;;35.42;;
33926;SDS011;20485;50.992;5.550;2023-03-03T01:58:44;90.43;;;29.98;;
33926;SDS011;20485;50.992;5.550;2023-03-03T02:01:14;98.97;;;35.60;;
33926;SDS011;20485;50.992;5.550;2023-03-03T02:03:44;105.40;;;36.58;;
33926;SDS011;20485;50.992;5.550;2023-03-03T02:06:18;96.97;;;35.38;;
33926;SDS011;20485;50.992;5.550;2023-03-03T02:08:58;97.45;;;34.75;;
33926;SDS011;20485;50.992;5.550;2023-03-03T02:11:24;106.88;;;37.15;;
33926;SDS011;20485;50.992;5.550;2023-03-03T02:13:51;102.45;;;35.50;;
33926;SDS011;20485;50.992;5.550;2023-03-03T02:16:17;100.25;;;33.45;;
33926;SDS011;20485;50.992;5.550;2023-03-03T02:18:43;109.45;;;35.67;;
33926;SDS011;20485;50.992;5.550;2023-03-03T02:21:10;113.30;;;38.53;;
33926;SDS011;20485;50.992;5.550;2023-03-03T02:26:18;103.60;;;34.78;;
33926;SDS011;20485;50.992;5.550;2023-03-03T02:28:49;106.75;;;36.47;;
33926;SDS011;20485;50.992;5.550;2023-03-03T02:31:16;119.97;;;37.63;;
33926;SDS011;20485;50.992;5.550;2023-03-03T02:33:45;94.47;;;32.88;;
33926;SDS011;20485;50.992;5.550;2023-03-03T02:36:14;122.00;;;38.55;;
33926;SDS011;20485;50.992;5.550;2023-03-03T02:44:02;116.47;;;37.65;;
33926;SDS011;20485;50.992;5.550;2023-03-03T02:46:30;115.00;;;36.65;;
33926;SDS011;20485;50.992;5.550;2023-03-03T02:49:01;126.88;;;37.88;;
33926;SDS011;20485;50.992;5.550;2023-03-03T02:51:27;120.32;;;38.83;;
33926;SDS011;20485;50.992;5.550;2023-03-03T02:53:53;130.40;;;40.55;;
33926;SDS011;20485;50.992;5.550;2023-03-03T02:56:18;129.20;;;37.60;;
33926;SDS011;20485;50.992;5.550;2023-03-03T02:58:44;127.25;;;40.03;;
33926;SDS011;20485;50.992;5.550;2023-03-03T03:01:10;130.88;;;39.47;;
33926;SDS011;20485;50.992;5.550;2023-03-03T03:03:35;135.35;;;40.05;;
33926;SDS011;20485;50.992;5.550;2023-03-03T03:06:01;121.60;;;38.67;;
33926;SDS011;20485;50.992;5.550;2023-03-03T03:08:27;116.93;;;40.85;;
33926;SDS011;20485;50.992;5.550;2023-03-03T03:10:53;121.10;;;37.40;;
33926;SDS011;20485;50.992;5.550;2023-03-03T03:13:20;119.78;;;39.40;;
33926;SDS011;20485;50.992;5.550;2023-03-03T03:15:47;114.20;;;39.85;;
33926;SDS011;20485;50.992;5.550;2023-03-03T03:18:13;130.88;;;41.67;;
33926;SDS011;20485;50.992;5.550;2023-03-03T03:20:39;117.85;;;40.10;;
33926;SDS011;20485;50.992;5.550;2023-03-03T03:23:06;108.50;;;36.20;;
33926;SDS011;20485;50.992;5.550;2023-03-03T03:25:33;104.25;;;35.78;;
33926;SDS011;20485;50.992;5.550;2023-03-03T03:27:59;103.15;;;35.42;;
33926;SDS011;20485;50.992;5.550;2023-03-03T03:30:24;100.85;;;34.33;;
33926;SDS011;20485;50.992;5.550;2023-03-03T03:32:50;93.45;;;30.77;;
33926;SDS011;20485;50.992;5.550;2023-03-03T03:35:16;94.07;;;33.50;;
33926;SDS011;20485;50.992;5.550;2023-03-03T03:37:42;98.28;;;34.00;;
33926;SDS011;20485;50.992;5.550;2023-03-03T03:40:08;100.72;;;36.03;;
33926;SDS011;20485;50.992;5.550;2023-03-03T03:42:35;96.45;;;32.65;;
33926;SDS011;20485;50.992;5.550;2023-03-03T03:45:02;102.32;;;31.17;;
33926;SDS011;20485;50.992;5.550;2023-03-03T03:47:28;81.30;;;28.65;;
33926;SDS011;20485;50.992;5.550;2023-03-03T03:49:54;90.05;;;31.65;;
33926;SDS011;20485;50.992;5.550;2023-03-03T03:52:21;88.88;;;29.08;;
33926;SDS011;20485;50.992;5.550;2023-03-03T03:54:47;90.75;;;31.58;;
33926;SDS011;20485;50.992;5.550;2023-03-03T03:57:12;94.47;;;32.33;;
33926;SDS011;20485;50.992;5.550;2023-03-03T03:59:38;91.20;;;29.65;;
33926;SDS011;20485;50.992;5.550;2023-03-03T04:02:04;81.25;;;25.88;;
33926;SDS011;20485;50.992;5.550;2023-03-03T04:04:29;79.13;;;28.27;;
33926;SDS011;20485;50.992;5.550;2023-03-03T04:06:55;86.90;;;28.65;;
33926;SDS011;20485;50.992;5.550;2023-03-03T04:09:23;86.68;;;28.02;;
33926;SDS011;20485;50.992;5.550;2023-03-03T04:11:49;85.57;;;26.83;;
33926;SDS011;20485;50.992;5.550;2023-03-03T04:14:15;84.35;;;28.77;;
33926;SDS011;20485;50.992;5.550;2023-03-03T04:16:40;88.90;;;26.95;;
33926;SDS011;20485;50.992;5.550;2023-03-03T04:19:06;86.35;;;28.58;;
33926;SDS011;20485;50.992;5.550;2023-03-03T04:21:32;81.60;;;27.30;;
33926;SDS011;20485;50.992;5.550;2023-03-03T04:23:57;79.07;;;27.73;;
33926;SDS011;20485;50.992;5.550;2023-03-03T04:26:23;75.00;;;24.35;;
33926;SDS011;20485;50.992;5.550;2023-03-03T04:28:50;83.82;;;26.77;;
33926;SDS011;20485;50.992;5.550;2023-03-03T04:31:16;89.68;;;28.48;;
33926;SDS011;20485;50.992;5.550;2023-03-03T04:33:42;78.20;;;27.13;;
33926;SDS011;20485;50.992;5.550;2023-03-03T04:36:07;87.75;;;28.23;;
33926;SDS011;20485;50.992;5.550;2023-03-03T04:38:33;87.28;;;27.65;;
33926;SDS011;20485;50.992;5.550;2023-03-03T04:40:59;84.10;;;28.15;;
33926;SDS011;20485;50.992;5.550;2023-03-03T04:43:24;84.60;;;28.13;;
33926;SDS011;20485;50.992;5.550;2023-03-03T04:45:50;76.78;;;23.52;;
33926;SDS011;20485;50.992;5.550;2023-03-03T04:48:16;89.22;;;28.33;;
33926;SDS011;20485;50.992;5.550;2023-03-03T04:50:41;78.60;;;25.65;;
33926;SDS011;20485;50.992;5.550;2023-03-03T04:53:07;83.47;;;25.63;;
33926;SDS011;20485;50.992;5.550;2023-03-03T04:55:35;82.38;;;26.88;;
33926;SDS011;20485;50.992;5.550;2023-03-03T04:58:02;81.00;;;27.30;;
33926;SDS011;20485;50.992;5.550;2023-03-03T05:00:28;91.65;;;26.25;;
33926;SDS011;20485;50.992;5.550;2023-03-03T05:02:54;78.72;;;24.88;;
33926;SDS011;20485;50.992;5.550;2023-03-03T05:05:20;81.35;;;26.15;;
33926;SDS011;20485;50.992;5.550;2023-03-03T05:07:45;95.55;;;26.95;;
33926;SDS011;20485;50.992;5.550;2023-03-03T05:10:12;92.57;;;27.42;;
33926;SDS011;20485;50.992;5.550;2023-03-03T05:12:37;85.78;;;26.88;;
33926;SDS011;20485;50.992;5.550;2023-03-03T05:15:03;97.70;;;26.77;;
33926;SDS011;20485;50.992;5.550;2023-03-03T05:17:30;90.22;;;25.92;;
33926;SDS011;20485;50.992;5.550;2023-03-03T05:19:55;88.70;;;27.13;;
33926;SDS011;20485;50.992;5.550;2023-03-03T05:22:21;92.45;;;26.00;;
33926;SDS011;20485;50.992;5.550;2023-03-03T05:24:48;92.95;;;27.77;;
33926;SDS011;20485;50.992;5.550;2023-03-03T05:27:14;84.55;;;25.48;;
33926;SDS011;20485;50.992;5.550;2023-03-03T05:29:40;99.28;;;25.65;;
33926;SDS011;20485;50.992;5.550;2023-03-03T05:32:06;92.90;;;26.23;;
33926;SDS011;20485;50.992;5.550;2023-03-03T05:34:31;96.40;;;27.40;;
33926;SDS011;20485;50.992;5.550;2023-03-03T05:36:57;98.80;;;25.33;;
33926;SDS011;20485;50.992;5.550;2023-03-03T05:39:23;94.82;;;26.75;;
33926;SDS011;20485;50.992;5.550;2023-03-03T05:41:48;99.20;;;24.63;;
33926;SDS011;20485;50.992;5.550;2023-03-03T05:44:14;96.13;;;26.60;;
33926;SDS011;20485;50.992;5.550;2023-03-03T05:46:40;96.20;;;25.92;;
33926;SDS011;20485;50.992;5.550;2023-03-03T05:49:06;86.93;;;24.88;;
33926;SDS011;20485;50.992;5.550;2023-03-03T05:51:32;96.72;;;24.85;;
33926;SDS011;20485;50.992;5.550;2023-03-03T05:53:58;106.20;;;26.30;;
33926;SDS011;20485;50.992;5.550;2023-03-03T05:56:24;86.22;;;23.63;;
33926;SDS011;20485;50.992;5.550;2023-03-03T05:58:49;93.68;;;27.15;;
33926;SDS011;20485;50.992;5.550;2023-03-03T06:01:15;99.00;;;25.45;;
33926;SDS011;20485;50.992;5.550;2023-03-03T06:03:41;89.43;;;26.25;;
33926;SDS011;20485;50.992;5.550;2023-03-03T06:06:11;91.68;;;25.90;;
33926;SDS011;20485;50.992;5.550;2023-03-03T06:08:38;85.03;;;23.60;;
33926;SDS011;20485;50.992;5.550;2023-03-03T06:11:03;88.72;;;25.83;;
33926;SDS011;20485;50.992;5.550;2023-03-03T06:13:29;103.50;;;25.00;;
33926;SDS011;20485;50.992;5.550;2023-03-03T06:15:55;100.55;;;25.75;;
33926;SDS011;20485;50.992;5.550;2023-03-03T06:18:20;103.90;;;27.13;;
33926;SDS011;20485;50.992;5.550;2023-03-03T06:20:50;89.72;;;22.77;;
33926;SDS011;20485;50.992;5.550;2023-03-03T06:23:16;84.38;;;23.95;;
33926;SDS011;20485;50.992;5.550;2023-03-03T06:25:42;91.95;;;24.13;;
33926;SDS011;20485;50.992;5.550;2023-03-03T06:28:08;92.20;;;24.48;;
33926;SDS011;20485;50.992;5.550;2023-03-03T06:30:34;87.93;;;24.40;;
33926;SDS011;20485;50.992;5.550;2023-03-03T06:33:00;94.22;;;24.92;;
33926;SDS011;20485;50.992;5.550;2023-03-03T06:35:26;104.82;;;25.70;;
33926;SDS011;20485;50.992;5.550;2023-03-03T06:37:55;86.68;;;23.42;;
33926;SDS011;20485;50.992;5.550;2023-03-03T06:40:20;98.38;;;24.80;;
33926;SDS011;20485;50.992;5.550;2023-03-03T06:42:46;88.68;;;24.02;;
33926;SDS011;20485;50.992;5.550;2023-03-03T06:45:13;97.72;;;25.70;;
33926;SDS011;20485;50.992;5.550;2023-03-03T06:47:39;85.43;;;25.27;;
33926;SDS011;20485;50.992;5.550;2023-03-03T06:50:05;114.90;;;35.53;;
33926;SDS011;20485;50.992;5.550;2023-03-03T06:52:32;103.80;;;25.70;;
33926;SDS011;20485;50.992;5.550;2023-03-03T06:54:59;91.55;;;23.88;;
33926;SDS011;20485;50.992;5.550;2023-03-03T06:57:30;104.35;;;25.75;;
33926;SDS011;20485;50.992;5.550;2023-03-03T06:59:59;105.32;;;26.60;;
33926;SDS011;20485;50.992;5.550;2023-03-03T07:02:39;95.65;;;25.13;;
33926;SDS011;20485;50.992;5.550;2023-03-03T07:05:08;93.28;;;24.13;;
33926;SDS011;20485;50.992;5.550;2023-03-03T07:07:38;88.23;;;24.17;;
33926;SDS011;20485;50.992;5.550;2023-03-03T07:10:46;105.68;;;24.48;;
33926;SDS011;20485;50.992;5.550;2023-03-03T07:12:55;103.00;;;25.90;;
33926;SDS011;20485;50.992;5.550;2023-03-03T07:15:33;97.00;;;23.90;;
33926;SDS011;20485;50.992;5.550;2023-03-03T07:17:59;106.53;;;26.38;;
33926;SDS011;20485;50.992;5.550;2023-03-03T07:20:31;94.63;;;23.25;;
33926;SDS011;20485;50.992;5.550;2023-03-03T07:22:59;131.68;;;32.72;;
33926;SDS011;20485;50.992;5.550;2023-03-03T07:28:06;94.85;;;26.15;;
33926;SDS011;20485;50.992;5.550;2023-03-03T07:30:46;100.95;;;28.30;;
33926;SDS011;20485;50.992;5.550;2023-03-03T07:33:28;106.25;;;27.73;;
33926;SDS011;20485;50.992;5.550;2023-03-03T07:35:59;103.75;;;25.55;;
33926;SDS011;20485;50.992;5.550;2023-03-03T07:38:37;99.90;;;25.88;;
33926;SDS011;20485;50.992;5.550;2023-03-03T07:41:09;104.18;;;26.50;;
33926;SDS011;20485;50.992;5.550;2023-03-03T07:43:48;98.85;;;24.42;;
33926;SDS011;20485;50.992;5.550;2023-03-03T07:46:40;100.35;;;25.10;;
33926;SDS011;20485;50.992;5.550;2023-03-03T07:52:00;92.90;;;24.08;;
33926;SDS011;20485;50.992;5.550;2023-03-03T07:54:32;100.68;;;25.98;;
33926;SDS011;20485;50.992;5.550;2023-03-03T07:57:06;94.57;;;26.23;;
33926;SDS011;20485;50.992;5.550;2023-03-03T08:04:55;90.53;;;23.65;;
33926;SDS011;20485;50.992;5.550;2023-03-03T08:07:21;88.47;;;24.08;;
33926;SDS011;20485;50.992;5.550;2023-03-03T08:10:00;90.63;;;24.58;;
33926;SDS011;20485;50.992;5.550;2023-03-03T08:15:18;83.40;;;25.65;;
33926;SDS011;20485;50.992;5.550;2023-03-03T08:17:45;91.40;;;24.92;;
33926;SDS011;20485;50.992;5.550;2023-03-03T08:22:53;86.25;;;23.75;;
33926;SDS011;20485;50.992;5.550;2023-03-03T08:25:19;96.13;;;26.13;;
33926;SDS011;20485;50.992;5.550;2023-03-03T08:27:45;98.30;;;26.73;;
33926;SDS011;20485;50.992;5.550;2023-03-03T08:30:10;87.40;;;25.30;;
33926;SDS011;20485;50.992;5.550;2023-03-03T08:32:36;86.47;;;25.30;;
33926;SDS011;20485;50.992;5.550;2023-03-03T08:35:02;86.35;;;24.48;;
33926;SDS011;20485;50.992;5.550;2023-03-03T08:37:28;91.57;;;26.80;;
33926;SDS011;20485;50.992;5.550;2023-03-03T08:39:53;87.88;;;25.02;;
33926;SDS011;20485;50.992;5.550;2023-03-03T08:42:19;85.10;;;25.90;;
33926;SDS011;20485;50.992;5.550;2023-03-03T08:44:45;90.28;;;27.40;;
33926;SDS011;20485;50.992;5.550;2023-03-03T08:47:10;81.78;;;25.90;;
33926;SDS011;20485;50.992;5.550;2023-03-03T08:49:36;77.28;;;23.70;;
33926;SDS011;20485;50.992;5.550;2023-03-03T08:52:02;72.82;;;23.95;;
33926;SDS011;20485;50.992;5.550;2023-03-03T08:54:28;72.80;;;24.83;;
33926;SDS011;20485;50.992;5.550;2023-03-03T08:56:54;77.45;;;26.08;;
33926;SDS011;20485;50.992;5.550;2023-03-03T08:59:19;91.47;;;32.08;;
33926;SDS011;20485;50.992;5.550;2023-03-03T09:01:46;68.35;;;23.63;;
33926;SDS011;20485;50.992;5.550;2023-03-03T09:04:11;72.93;;;23.63;;
33926;SDS011;20485;50.992;5.550;2023-03-03T09:06:37;72.97;;;23.75;;
33926;SDS011;20485;50.992;5.550;2023-03-03T09:09:03;76.43;;;24.20;;
33926;SDS011;20485;50.992;5.550;2023-03-03T09:11:29;69.20;;;22.83;;
33926;SDS011;20485;50.992;5.550;2023-03-03T09:14:03;68.20;;;24.30;;
33926;SDS011;20485;50.992;5.550;2023-03-03T09:16:36;68.35;;;22.60;;
33926;SDS011;20485;50.992;5.550;2023-03-03T09:19:18;68.07;;;22.83;;
33926;SDS011;20485;50.992;5.550;2023-03-03T09:21:49;64.65;;;22.55;;
33926;SDS011;20485;50.992;5.550;2023-03-03T09:24:31;64.25;;;20.50;;
33926;SDS011;20485;50.992;5.550;2023-03-03T09:27:01;68.97;;;23.70;;
33926;SDS011;20485;50.992;5.550;2023-03-03T09:29:30;67.30;;;23.40;;
33926;SDS011;20485;50.992;5.550;2023-03-03T09:32:16;67.40;;;21.83;;
33926;SDS011;20485;50.992;5.550;2023-03-03T09:34:54;62.95;;;22.67;;
33926;SDS011;20485;50.992;5.550;2023-03-03T09:37:21;60.42;;;21.25;;
33926;SDS011;20485;50.992;5.550;2023-03-03T09:39:51;63.33;;;23.52;;
33926;SDS011;20485;50.992;5.550;2023-03-03T09:47:41;63.90;;;22.67;;
33926;SDS011;20485;50.992;5.550;2023-03-03T10:04:04;62.67;;;23.75;;
33926;SDS011;20485;50.992;5.550;2023-03-03T10:12:49;65.70;;;23.35;;
33926;SDS011;20485;50.992;5.550;2023-03-03T10:21:35;58.75;;;21.95;;
33926;SDS011;20485;50.992;5.550;2023-03-03T10:38:01;52.75;;;20.15;;
33926;SDS011;20485;50.992;5.550;2023-03-03T10:46:00;49.25;;;20.88;;
33926;SDS011;20485;50.992;5.550;2023-03-03T10:56:38;58.45;;;21.20;;
33926;SDS011;20485;50.992;5.550;2023-03-03T11:01:51;47.25;;;18.50;;
33926;SDS011;20485;50.992;5.550;2023-03-03T11:07:20;51.63;;;20.15;;
33926;SDS011;20485;50.992;5.550;2023-03-03T11:24:03;43.05;;;17.48;;
33926;SDS011;20485;50.992;5.550;2023-03-03T11:26:59;49.88;;;17.50;;
33926;SDS011;20485;50.992;5.550;2023-03-03T11:40:26;45.60;;;17.80;;
33926;SDS011;20485;50.992;5.550;2023-03-03T11:46:50;41.30;;;16.15;;
33926;SDS011;20485;50.992;5.550;2023-03-03T11:48:59;37.95;;;16.20;;
33926;SDS011;20485;50.992;5.550;2023-03-03T11:54:43;41.85;;;16.92;;
33926;SDS011;20485;50.992;5.550;2023-03-03T12:00:41;42.45;;;16.23;;
33926;SDS011;20485;50.992;5.550;2023-03-03T12:06:30;39.78;;;14.77;;
33926;SDS011;20485;50.992;5.550;2023-03-03T12:15:01;43.33;;;17.23;;
33926;SDS011;20485;50.992;5.550;2023-03-03T12:17:50;41.05;;;15.82;;
33926;SDS011;20485;50.992;5.550;2023-03-03T12:20:46;40.15;;;15.93;;
33926;SDS011;20485;50.992;5.550;2023-03-03T12:28:37;39.85;;;15.93;;
33926;SDS011;20485;50.992;5.550;2023-03-03T12:31:26;42.28;;;15.63;;
33926;SDS011;20485;50.992;5.550;2023-03-03T12:40:12;38.85;;;15.32;;
33926;SDS011;20485;50.992;5.550;2023-03-03T12:48:29;36.10;;;14.75;;
33926;SDS011;20485;50.992;5.550;2023-03-03T12:51:04;42.85;;;16.50;;
33926;SDS011;20485;50.992;5.550;2023-03-03T12:53:54;44.00;;;15.65;;
33926;SDS011;20485;50.992;5.550;2023-03-03T13:02:19;37.80;;;16.23;;
33926;SDS011;20485;50.992;5.550;2023-03-03T13:05:17;37.35;;;15.43;;
33926;SDS011;20485;50.992;5.550;2023-03-03T13:07:53;42.60;;;14.95;;
33926;SDS011;20485;50.992;5.550;2023-03-03T13:10:29;35.78;;;16.05;;
33926;SDS011;20485;50.992;5.550;2023-03-03T13:13:12;44.87;;;16.10;;
33926;SDS011;20485;50.992;5.550;2023-03-03T13:15:47;36.03;;;16.00;;
33926;SDS011;20485;50.992;5.550;2023-03-03T13:21:15;41.95;;;17.83;;
33926;SDS011;20485;50.992;5.550;2023-03-03T13:26:47;44.45;;;15.65;;
33926;SDS011;20485;50.992;5.550;2023-03-03T13:32:02;37.33;;;16.40;;
33926;SDS011;20485;50.992;5.550;2023-03-03T13:37:05;38.13;;;15.98;;
33926;SDS011;20485;50.992;5.550;2023-03-03T13:39:44;39.78;;;16.52;;
33926;SDS011;20485;50.992;5.550;2023-03-03T13:45:02;43.65;;;16.45;;
33926;SDS011;20485;50.992;5.550;2023-03-03T13:50:50;36.47;;;14.13;;
33926;SDS011;20485;50.992;5.550;2023-03-03T14:01:08;38.28;;;15.20;;
33926;SDS011;20485;50.992;5.550;2023-03-03T14:06:51;36.08;;;15.07;;
33926;SDS011;20485;50.992;5.550;2023-03-03T14:09:28;38.07;;;14.93;;
33926;SDS011;20485;50.992;5.550;2023-03-03T14:15:01;31.27;;;11.57;;
33926;SDS011;20485;50.992;5.550;2023-03-03T14:17:50;32.10;;;13.15;;
33926;SDS011;20485;50.992;5.550;2023-03-03T14:20:28;30.17;;;12.82;;
33926;SDS011;20485;50.992;5.550;2023-03-03T14:22:57;29.05;;;12.82;;
33926;SDS011;20485;50.992;5.550;2023-03-03T14:25:26;30.52;;;13.05;;
33926;SDS011;20485;50.992;5.550;2023-03-03T14:28:12;35.25;;;14.30;;
33926;SDS011;20485;50.992;5.550;2023-03-03T14:30:40;31.98;;;13.25;;
33926;SDS011;20485;50.992;5.550;2023-03-03T14:35:37;32.80;;;13.13;;
33926;SDS011;20485;50.992;5.550;2023-03-03T14:40:33;36.08;;;14.52;;
33926;SDS011;20485;50.992;5.550;2023-03-03T14:43:02;32.53;;;13.98;;
33926;SDS011;20485;50.992;5.550;2023-03-03T14:45:42;30.70;;;13.30;;
33926;SDS011;20485;50.992;5.550;2023-03-03T14:48:21;29.25;;;11.73;;
33926;SDS011;20485;50.992;5.550;2023-03-03T14:50:55;33.63;;;13.30;;
33926;SDS011;20485;50.992;5.550;2023-03-03T14:53:37;32.78;;;13.43;;
33926;SDS011;20485;50.992;5.550;2023-03-03T14:56:14;33.28;;;14.00;;
33926;SDS011;20485;50.992;5.550;2023-03-03T14:58:46;30.38;;;13.50;;
33926;SDS011;20485;50.992;5.550;2023-03-03T15:04:09;37.50;;;14.38;;
33926;SDS011;20485;50.992;5.550;2023-03-03T15:06:49;35.08;;;15.70;;
33926;SDS011;20485;50.992;5.550;2023-03-03T15:11:52;29.55;;;13.02;;
33926;SDS011;20485;50.992;5.550;2023-03-03T15:14:20;37.38;;;14.82;;
33926;SDS011;20485;50.992;5.550;2023-03-03T15:16:53;30.95;;;14.25;;
33926;SDS011;20485;50.992;5.550;2023-03-03T15:19:36;33.55;;;13.60;;
33926;SDS011;20485;50.992;5.550;2023-03-03T15:22:22;30.23;;;12.40;;
33926;SDS011;20485;50.992;5.550;2023-03-03T15:27:57;32.05;;;13.82;;
33926;SDS011;20485;50.992;5.550;2023-03-03T15:50:27;32.50;;;13.77;;
33926;SDS011;20485;50.992;5.550;2023-03-03T15:53:00;35.42;;;14.90;;
33926;SDS011;20485;50.992;5.550;2023-03-03T15:56:35;32.97;;;14.50;;
33926;SDS011;20485;50.992;5.550;2023-03-03T15:59:01;32.38;;;13.77;;
33926;SDS011;20485;50.992;5.550;2023-03-03T16:01:44;30.55;;;13.93;;
33926;SDS011;20485;50.992;5.550;2023-03-03T16:04:25;28.65;;;13.60;;
33926;SDS011;20485;50.992;5.550;2023-03-03T16:07:08;29.25;;;13.60;;
33926;SDS011;20485;50.992;5.550;2023-03-03T16:17:52;31.35;;;13.85;;
33926;SDS011;20485;50.992;5.550;2023-03-03T16:20:27;32.30;;;14.65;;
33926;SDS011;20485;50.992;5.550;2023-03-03T16:23:50;32.10;;;14.13;;
33926;SDS011;20485;50.992;5.550;2023-03-03T16:26:03;27.13;;;13.10;;
33926;SDS011;20485;50.992;5.550;2023-03-03T16:31:28;39.13;;;14.60;;
33926;SDS011;20485;50.992;5.550;2023-03-03T16:34:20;44.78;;;15.93;;
33926;SDS011;20485;50.992;5.550;2023-03-03T16:50:30;29.77;;;13.57;;
33926;SDS011;20485;50.992;5.550;2023-03-03T17:03:58;31.90;;;13.80;;
33926;SDS011;20485;50.992;5.550;2023-03-03T17:07:00;25.88;;;11.80;;
33926;SDS011;20485;50.992;5.550;2023-03-03T17:15:45;32.35;;;13.57;;
33926;SDS011;20485;50.992;5.550;2023-03-03T17:21:19;28.02;;;12.73;;
33926;SDS011;20485;50.992;5.550;2023-03-03T17:30:03;29.35;;;13.07;;
33926;SDS011;20485;50.992;5.550;2023-03-03T17:45:45;30.17;;;11.35;;
33926;SDS011;20485;50.992;5.550;2023-03-03T17:48:32;33.53;;;13.30;;
33926;SDS011;20485;50.992;5.550;2023-03-03T18:03:04;26.67;;;12.07;;
33926;SDS011;20485;50.992;5.550;2023-03-03T18:25:11;29.73;;;12.30;;
33926;SDS011;20485;50.992;5.550;2023-03-03T18:27:39;29.77;;;12.18;;
33926;SDS011;20485;50.992;5.550;2023-03-03T18:35:27;40.85;;;15.45;;
33926;SDS011;20485;50.992;5.550;2023-03-03T18:46:08;33.55;;;13.75;;
33926;SDS011;20485;50.992;5.550;2023-03-03T19:02:40;36.60;;;15.52;;
33926;SDS011;20485;50.992;5.550;2023-03-03T19:07:42;35.92;;;14.40;;
33926;SDS011;20485;50.992;5.550;2023-03-03T19:18:28;40.03;;;15.63;;
33926;SDS011;20485;50.992;5.550;2023-03-03T19:23:48;43.70;;;15.85;;
33926;SDS011;20485;50.992;5.550;2023-03-03T19:28:55;39.72;;;14.30;;
33926;SDS011;20485;50.992;5.550;2023-03-03T19:31:28;34.92;;;14.32;;
33926;SDS011;20485;50.992;5.550;2023-03-03T19:34:08;46.67;;;16.08;;
33926;SDS011;20485;50.992;5.550;2023-03-03T19:56:14;50.78;;;18.95;;
33926;SDS011;20485;50.992;5.550;2023-03-03T20:07:30;44.97;;;19.67;;
33926;SDS011;20485;50.992;5.550;2023-03-03T20:13:02;54.35;;;20.50;;
33926;SDS011;20485;50.992;5.550;2023-03-03T20:34:54;55.65;;;19.95;;
33926;SDS011;20485;50.992;5.550;2023-03-03T20:43:00;61.78;;;25.60;;
33926;SDS011;20485;50.992;5.550;2023-03-03T20:48:35;54.80;;;20.65;;
33926;SDS011;20485;50.992;5.550;2023-03-03T20:51:07;57.03;;;19.30;;
33926;SDS011;20485;50.992;5.550;2023-03-03T20:53:55;46.90;;;19.65;;
33926;SDS011;20485;50.992;5.550;2023-03-03T20:56:38;48.65;;;19.30;;
33926;SDS011;20485;50.992;5.550;2023-03-03T21:01:56;43.30;;;18.73;;
33926;SDS011;20485;50.992;5.550;2023-03-03T21:04:28;53.67;;;18.88;;
33926;SDS011;20485;50.992;5.550;2023-03-03T21:06:55;50.47;;;19.20;;
33926;SDS011;20485;50.992;5.550;2023-03-03T21:09:29;49.58;;;20.08;;
33926;SDS011;20485;50.992;5.550;2023-03-03T21:12:00;50.58;;;20.52;;
33926;SDS011;20485;50.992;5.550;2023-03-03T21:14:46;41.25;;;18.10;;
33926;SDS011;20485;50.992;5.550;2023-03-03T21:17:27;53.15;;;21.23;;
33926;SDS011;20485;50.992;5.550;2023-03-03T21:19:55;55.25;;;22.35;;
33926;SDS011;20485;50.992;5.550;2023-03-03T21:22:57;47.47;;;19.73;;
33926;SDS011;20485;50.992;5.550;2023-03-03T21:36:10;55.65;;;22.15;;
33926;SDS011;20485;50.992;5.550;2023-03-03T21:38:37;57.85;;;23.35;;
33926;SDS011;20485;50.992;5.550;2023-03-03T21:41:04;65.70;;;23.20;;
33926;SDS011;20485;50.992;5.550;2023-03-03T21:43:35;50.70;;;21.65;;
33926;SDS011;20485;50.992;5.550;2023-03-03T21:48:31;56.15;;;22.00;;
33926;SDS011;20485;50.992;5.550;2023-03-03T21:51:03;55.60;;;22.65;;
33926;SDS011;20485;50.992;5.550;2023-03-03T21:53:29;57.85;;;23.48;;
33926;SDS011;20485;50.992;5.550;2023-03-03T21:55:55;61.10;;;23.55;;
33926;SDS011;20485;50.992;5.550;2023-03-03T21:58:20;58.42;;;24.75;;
33926;SDS011;20485;50.992;5.550;2023-03-03T22:00:46;61.20;;;24.55;;
33926;SDS011;20485;50.992;5.550;2023-03-03T22:03:12;68.07;;;24.50;;
33926;SDS011;20485;50.992;5.550;2023-03-03T22:05:39;59.47;;;24.80;;
33926;SDS011;20485;50.992;5.550;2023-03-03T22:08:05;57.40;;;23.95;;
33926;SDS011;20485;50.992;5.550;2023-03-03T22:10:31;61.78;;;25.67;;